createdAt,value
2022-12-11T00:00:27.286Z,84.63
2022-12-11T00:02:56.635Z,84.33
2022-12-11T00:05:24.600Z,84.57
2022-12-11T00:07:52.481Z,84.48
2022-12-11T00:10:21.706Z,84.60
2022-12-11T00:12:49.630Z,84.53
2022-12-11T00:15:17.555Z,84.92
2022-12-11T00:17:45.510Z,84.84
2022-12-11T00:20:13.392Z,83.85
2022-12-11T00:22:41.218Z,82.91
2022-12-11T00:25:09.986Z,83.29
2022-12-11T00:27:39.722Z,83.79
2022-12-11T00:30:08.753Z,83.87
2022-12-11T00:32:37.837Z,83.79
2022-12-11T00:35:06.571Z,83.54
2022-12-11T00:37:34.463Z,83.85
2022-12-11T00:40:02.396Z,83.87
2022-12-11T00:42:30.418Z,84.56
2022-12-11T00:44:59.642Z,84.51
2022-12-11T00:47:27.515Z,84.14
2022-12-11T00:49:55.371Z,84.19
2022-12-11T00:52:23.419Z,85.16
2022-12-11T00:54:51.240Z,85.74
2022-12-11T00:57:19.123Z,85.30
2022-12-11T00:59:47.007Z,84.84
2022-12-11T01:02:16.183Z,85.45
2022-12-11T01:04:44.014Z,86.25
2022-12-11T01:07:11.858Z,85.72
2022-12-11T01:09:57.002Z,85.63
2022-12-11T01:12:26.718Z,85.86
2022-12-11T01:14:55.075Z,86.10
2022-12-11T01:17:24.279Z,85.53
2022-12-11T01:19:54.638Z,84.25
2022-12-11T01:22:22.881Z,85.87
2022-12-11T01:24:51.044Z,85.15
2022-12-11T01:27:18.939Z,85.02
2022-12-11T01:29:46.735Z,84.61
2022-12-11T01:32:14.669Z,85.07
2022-12-11T01:34:43.906Z,85.19
2022-12-11T01:37:11.703Z,85.30
2022-12-11T01:39:39.653Z,85.66
2022-12-11T01:42:10.426Z,85.39
2022-12-11T01:45:26.723Z,85.47
2022-12-11T01:48:00.422Z,85.45
2022-12-11T01:50:31.117Z,85.34
2022-12-11T01:52:59.542Z,85.50
2022-12-11T01:55:27.877Z,86.43
2022-12-11T01:57:55.813Z,86.67
2022-12-11T02:00:23.825Z,86.34
2022-12-11T02:02:51.757Z,86.75
2022-12-11T02:05:19.684Z,87.22
2022-12-11T02:07:53.566Z,86.96
2022-12-11T02:10:23.106Z,86.81
2022-12-11T02:12:58.704Z,86.59
2022-12-11T02:15:34.474Z,86.54
2022-12-11T02:18:10.953Z,86.08
2022-12-11T02:20:44.491Z,86.43
2022-12-11T02:23:38.567Z,86.43
2022-12-11T02:26:18.315Z,86.21
2022-12-11T02:28:52.098Z,86.34
2022-12-11T02:31:27.630Z,87.02
2022-12-11T02:34:02.497Z,86.74
2022-12-11T02:36:35.669Z,86.99
2022-12-11T02:39:06.766Z,86.67
2022-12-11T02:41:35.753Z,87.09
2022-12-11T02:44:06.329Z,86.02
2022-12-11T02:46:36.769Z,85.84
2022-12-11T02:49:08.083Z,85.95
2022-12-11T02:51:40.638Z,85.82
2022-12-11T02:54:13.119Z,85.95
2022-12-11T02:56:47.183Z,85.68
2022-12-11T02:59:22.522Z,85.70
2022-12-11T03:01:52.801Z,86.00
2022-12-11T03:04:24.995Z,85.81
2022-12-11T03:06:56.448Z,85.89
2022-12-11T03:09:24.320Z,85.43
2022-12-11T03:11:53.185Z,85.95
2022-12-11T03:14:22.415Z,85.73
2022-12-11T03:16:57.920Z,85.90
2022-12-11T03:19:33.062Z,85.32
2022-12-11T03:22:09.797Z,84.93
2022-12-11T03:24:45.617Z,85.50
2022-12-11T03:27:21.153Z,86.13
2022-12-11T03:29:57.893Z,85.59
2022-12-11T03:32:30.950Z,85.63
2022-12-11T03:35:04.595Z,85.79
2022-12-11T03:37:36.425Z,85.50
2022-12-11T03:40:09.440Z,86.38
2022-12-11T03:42:39.849Z,86.30
2022-12-11T03:45:10.651Z,85.68
2022-12-11T03:47:41.014Z,85.67
2022-12-11T03:50:12.129Z,85.95
2022-12-11T03:52:45.839Z,85.80
2022-12-11T03:55:15.974Z,85.93
2022-12-11T03:57:44.133Z,85.33
2022-12-11T04:00:16.335Z,85.94
2022-12-11T04:02:45.342Z,84.77
2022-12-11T04:05:13.660Z,85.42
2022-12-11T04:07:41.637Z,85.72
2022-12-11T04:10:09.527Z,85.48
2022-12-11T04:12:37.317Z,85.12
2022-12-11T04:15:04.635Z,84.47
2022-12-11T04:17:53.201Z,84.63
2022-12-11T04:20:39.648Z,84.88
2022-12-11T04:23:29.860Z,85.79
2022-12-11T04:26:05.797Z,85.13
2022-12-11T04:28:33.764Z,85.42
2022-12-11T04:31:02.435Z,85.35
2022-12-11T04:33:32.362Z,85.69
2022-12-11T04:36:01.245Z,85.09
2022-12-11T04:38:29.167Z,84.82
2022-12-11T04:41:00.520Z,84.34
2022-12-11T04:43:28.613Z,85.14
2022-12-11T04:46:02.654Z,84.38
2022-12-11T04:48:32.107Z,84.51
2022-12-11T04:51:00.408Z,84.53
2022-12-11T04:53:28.448Z,85.10
2022-12-11T04:55:56.620Z,84.65
2022-12-11T04:58:24.728Z,84.82
2022-12-11T05:00:52.772Z,84.33
2022-12-11T05:03:20.727Z,84.15
2022-12-11T05:05:51.641Z,84.10
2022-12-11T05:08:20.267Z,84.15
2022-12-11T05:10:56.946Z,84.07
2022-12-11T05:13:25.012Z,83.72
2022-12-11T05:15:52.873Z,83.96
2022-12-11T05:18:20.698Z,83.81
2022-12-11T05:20:57.878Z,83.97
2022-12-11T05:23:25.752Z,84.26
2022-12-11T05:25:54.816Z,83.83
2022-12-11T05:28:24.899Z,83.89
2022-12-11T05:30:57.776Z,84.35
2022-12-11T05:33:26.310Z,84.16
2022-12-11T05:35:54.112Z,83.38
2022-12-11T05:38:23.723Z,81.88
2022-12-11T05:40:57.311Z,82.61
2022-12-11T05:43:25.296Z,82.69
2022-12-11T05:45:53.154Z,81.89
2022-12-11T05:48:21.358Z,82.22
2022-12-11T05:50:58.840Z,82.09
2022-12-11T05:53:29.109Z,81.95
2022-12-11T05:56:03.089Z,82.17
2022-12-11T05:58:31.626Z,82.26
2022-12-11T06:01:00.291Z,82.06
2022-12-11T06:03:28.559Z,80.95
2022-12-11T06:05:56.688Z,82.09
2022-12-11T06:08:24.813Z,81.60
2022-12-11T06:10:54.431Z,81.85
2022-12-11T06:13:22.819Z,81.13
2022-12-11T06:15:51.397Z,81.63
2022-12-11T06:18:19.845Z,81.91
2022-12-11T06:20:48.146Z,82.05
2022-12-11T06:23:16.356Z,81.68
2022-12-11T06:25:44.552Z,81.69
2022-12-11T06:28:14.266Z,81.85
2022-12-11T06:30:42.436Z,82.24
2022-12-11T06:33:10.653Z,82.31
2022-12-11T06:35:42.261Z,82.15
2022-12-11T06:38:11.592Z,82.78
2022-12-11T06:40:40.608Z,82.51
2022-12-11T06:43:08.792Z,82.71
2022-12-11T06:45:38.216Z,82.13
2022-12-11T06:48:06.400Z,82.28
2022-12-11T06:50:34.223Z,82.58
2022-12-11T06:53:02.087Z,82.79
2022-12-11T06:55:29.955Z,82.33
2022-12-11T06:57:57.741Z,82.64
2022-12-11T07:00:25.557Z,83.30
2022-12-11T07:02:54.944Z,83.45
2022-12-11T07:05:22.725Z,83.28
2022-12-11T07:07:50.691Z,83.23
2022-12-11T07:10:19.190Z,83.15
2022-12-11T07:12:47.067Z,83.64
2022-12-11T07:15:15.038Z,83.60
2022-12-11T07:17:43.246Z,83.81
2022-12-11T07:20:12.888Z,83.48
2022-12-11T07:22:46.388Z,83.61
2022-12-11T07:25:15.308Z,83.82
2022-12-11T07:27:43.578Z,83.69
2022-12-11T07:30:12.962Z,84.09
2022-12-11T07:32:40.910Z,84.06
2022-12-11T07:35:10.266Z,83.61
2022-12-11T07:37:42.617Z,83.77
2022-12-11T07:40:11.703Z,84.41
2022-12-11T07:42:45.846Z,83.55
2022-12-11T07:45:14.913Z,84.32
2022-12-11T07:47:42.872Z,83.44
2022-12-11T07:50:11.975Z,84.03
2022-12-11T07:52:41.646Z,84.22
2022-12-11T07:55:11.932Z,83.78
2022-12-11T07:57:40.036Z,83.45
2022-12-11T08:00:10.397Z,84.40
2022-12-11T08:02:40.868Z,83.38
2022-12-11T08:05:10.224Z,83.52
2022-12-11T08:07:38.369Z,83.30
2022-12-11T08:10:08.172Z,83.68
2022-12-11T08:12:36.025Z,83.64
2022-12-11T08:15:04.153Z,83.14
2022-12-11T08:17:35.285Z,83.09
2022-12-11T08:20:09.303Z,83.31
2022-12-11T08:22:37.175Z,82.97
2022-12-11T08:25:07.541Z,83.21
2022-12-11T08:27:35.392Z,82.91
2022-12-11T08:30:03.311Z,82.16
2022-12-11T08:32:31.190Z,82.12
2022-12-11T08:34:58.965Z,82.47
2022-12-11T08:37:26.768Z,81.67
2022-12-11T08:39:54.628Z,81.51
2022-12-11T08:42:23.863Z,80.79
2022-12-11T08:44:51.807Z,81.88
2022-12-11T08:47:21.195Z,81.88
2022-12-11T08:49:48.980Z,81.58
2022-12-11T08:52:16.830Z,81.88
2022-12-11T08:54:44.691Z,81.93
2022-12-11T08:57:12.525Z,81.95
2022-12-11T08:59:43.150Z,81.91
2022-12-11T09:02:12.558Z,81.24
2022-12-11T09:04:40.620Z,81.48
2022-12-11T09:07:08.547Z,81.79
2022-12-11T09:09:36.510Z,81.26
2022-12-11T09:12:04.717Z,81.35
2022-12-11T09:14:32.662Z,80.96
2022-12-11T09:17:01.884Z,81.89
2022-12-11T09:19:32.375Z,81.68
2022-12-11T09:22:00.519Z,81.65
2022-12-11T09:24:28.409Z,81.04
2022-12-11T09:26:56.237Z,81.14
2022-12-11T09:29:24.115Z,80.85
2022-12-11T09:31:51.938Z,81.22
2022-12-11T09:34:26.082Z,80.79
2022-12-11T09:36:56.961Z,81.63
2022-12-11T09:39:24.923Z,80.90
2022-12-11T09:42:00.165Z,80.81
2022-12-11T09:44:40.993Z,80.87
2022-12-11T09:47:22.874Z,80.82
2022-12-11T09:49:58.046Z,81.35
2022-12-11T09:52:33.484Z,80.89
2022-12-11T09:55:04.256Z,80.57
2022-12-11T09:57:43.920Z,80.87
2022-12-11T10:00:21.026Z,81.29
2022-12-11T10:03:09.260Z,81.02
2022-12-11T10:05:45.009Z,80.19
2022-12-11T10:08:21.925Z,79.43
2022-12-11T10:10:58.509Z,80.07
2022-12-11T10:13:37.791Z,80.43
2022-12-11T10:16:18.926Z,79.91
2022-12-11T10:18:47.570Z,78.83
2022-12-11T10:21:19.104Z,78.14
2022-12-11T10:23:50.937Z,79.08
2022-12-11T10:26:20.392Z,78.74
2022-12-11T10:28:48.229Z,80.18
2022-12-11T10:31:19.496Z,79.58
2022-12-11T10:33:58.440Z,79.40
2022-12-11T10:36:30.841Z,78.13
2022-12-11T10:38:59.233Z,77.57
2022-12-11T10:41:39.154Z,78.56
2022-12-11T10:44:17.529Z,77.35
2022-12-11T10:46:46.267Z,77.77
2022-12-11T10:49:25.987Z,76.94
2022-12-11T10:51:55.912Z,76.94
2022-12-11T10:54:32.323Z,77.58
2022-12-11T10:57:03.184Z,77.99
2022-12-11T10:59:37.161Z,78.20
2022-12-11T11:02:06.607Z,77.70
2022-12-11T11:04:37.927Z,76.86
2022-12-11T11:07:14.408Z,77.05
2022-12-11T11:09:42.527Z,77.42
2022-12-11T11:12:24.337Z,76.89
2022-12-11T11:15:03.622Z,76.60
2022-12-11T11:17:35.077Z,76.72
2022-12-11T11:20:13.459Z,76.68
2022-12-11T11:22:46.545Z,76.43
2022-12-11T11:25:20.911Z,75.91
2022-12-11T11:28:20.205Z,75.53
2022-12-11T11:30:59.090Z,75.54
2022-12-11T11:33:27.679Z,75.14
2022-12-11T11:35:56.918Z,75.06
2022-12-11T11:38:29.135Z,75.92
2022-12-11T11:41:06.541Z,74.99
2022-12-11T11:43:43.362Z,75.84
2022-12-11T11:46:16.667Z,76.14
2022-12-11T11:48:51.884Z,75.36
2022-12-11T11:51:26.003Z,76.04
2022-12-11T11:53:58.871Z,75.38
2022-12-11T11:56:35.055Z,75.20
2022-12-11T11:59:12.906Z,75.39
2022-12-11T12:01:42.539Z,75.66
2022-12-11T12:04:12.049Z,75.14
2022-12-11T12:06:56.889Z,75.37
2022-12-11T12:09:40.714Z,75.13
2022-12-11T12:12:22.836Z,75.77
2022-12-11T12:15:09.560Z,76.52
2022-12-11T12:17:53.612Z,75.75
2022-12-11T12:20:32.006Z,75.79
2022-12-11T12:23:16.009Z,74.83
2022-12-11T12:25:53.476Z,74.89
2022-12-11T12:28:30.548Z,75.05
2022-12-11T12:31:08.819Z,75.06
2022-12-11T12:33:50.609Z,75.87
2022-12-11T12:36:27.961Z,75.54
2022-12-11T12:39:02.451Z,75.28
2022-12-11T12:41:44.115Z,74.70
2022-12-11T12:44:16.582Z,74.33
2022-12-11T12:46:52.405Z,73.62
2022-12-11T12:49:39.382Z,73.83
2022-12-11T12:52:13.295Z,73.35
2022-12-11T12:55:03.745Z,72.77
2022-12-11T12:57:33.943Z,72.74
2022-12-11T13:00:02.182Z,73.67
2022-12-11T13:02:31.064Z,73.37
2022-12-11T13:05:03.789Z,72.82
2022-12-11T13:07:33.263Z,72.58
2022-12-11T13:10:06.583Z,73.03
2022-12-11T13:12:43.532Z,73.87
2022-12-11T13:15:34.933Z,73.39
2022-12-11T13:18:05.305Z,73.81
2022-12-11T13:20:34.998Z,74.22
2022-12-11T13:23:17.849Z,74.25
2022-12-11T13:25:54.178Z,74.72
2022-12-11T13:28:46.557Z,74.50
2022-12-11T13:31:38.091Z,75.09
2022-12-11T13:34:16.994Z,74.42
2022-12-11T13:36:49.745Z,74.72
2022-12-11T13:39:20.804Z,74.58
2022-12-11T13:41:53.637Z,74.15
2022-12-11T13:44:27.029Z,74.24
2022-12-11T13:46:57.630Z,74.05
2022-12-11T13:49:27.618Z,73.34
2022-12-11T13:51:58.683Z,74.34
2022-12-11T13:54:27.888Z,74.32
2022-12-11T13:57:05.337Z,74.07
2022-12-11T13:59:37.549Z,74.19
2022-12-11T14:02:12.781Z,73.60
2022-12-11T14:04:40.979Z,73.22
2022-12-11T14:07:11.442Z,74.66
2022-12-11T14:09:44.234Z,75.12
2022-12-11T14:12:18.886Z,74.64
2022-12-11T14:14:52.333Z,75.14
2022-12-11T14:17:26.082Z,75.92
2022-12-11T14:19:55.642Z,75.79
2022-12-11T14:22:26.211Z,75.18
2022-12-11T14:24:55.946Z,76.21
2022-12-11T14:27:24.760Z,75.81
2022-12-11T14:29:54.588Z,76.03
2022-12-11T14:32:32.451Z,75.82
2022-12-11T14:35:03.138Z,75.70
2022-12-11T14:37:31.490Z,75.64
2022-12-11T14:40:02.678Z,75.89
2022-12-11T14:42:33.433Z,75.72
2022-12-11T14:45:08.384Z,75.71
2022-12-11T14:47:42.132Z,75.80
2022-12-11T14:50:18.889Z,75.58
2022-12-11T14:52:52.343Z,75.93
2022-12-11T14:55:23.796Z,75.87
2022-12-11T14:57:56.810Z,75.63
2022-12-11T15:00:30.054Z,76.14
2022-12-11T15:03:00.130Z,76.76
2022-12-11T15:05:28.313Z,77.36
2022-12-11T15:07:59.585Z,78.05
2022-12-11T15:10:36.479Z,78.50
2022-12-11T15:13:06.861Z,78.57
2022-12-11T15:15:44.563Z,79.31
2022-12-11T15:18:20.963Z,79.38
2022-12-11T15:20:52.719Z,79.60
2022-12-11T15:23:20.841Z,79.76
2022-12-11T15:25:52.717Z,80.34
2022-12-11T15:28:32.276Z,80.73
2022-12-11T15:31:04.939Z,80.72
2022-12-11T15:33:34.698Z,81.18
2022-12-11T15:36:05.177Z,81.37
2022-12-11T15:38:36.757Z,81.43
2022-12-11T15:41:05.723Z,81.92
2022-12-11T15:43:37.252Z,81.96
2022-12-11T15:46:07.166Z,81.87
2022-12-11T15:48:35.549Z,83.88
2022-12-11T15:51:03.702Z,82.89
2022-12-11T15:53:31.985Z,83.04
2022-12-11T15:56:00.925Z,82.87
2022-12-11T15:58:29.801Z,82.75
2022-12-11T16:00:58.441Z,83.18
2022-12-11T16:03:28.100Z,83.01
2022-12-11T16:05:55.953Z,83.15
2022-12-11T16:08:25.056Z,82.73
2022-12-11T16:10:54.866Z,83.09
2022-12-11T16:13:22.999Z,83.05
2022-12-11T16:15:53.680Z,82.85
2022-12-11T16:18:23.620Z,82.93
2022-12-11T16:20:52.991Z,83.15
2022-12-11T16:23:21.450Z,83.08
2022-12-11T16:25:50.126Z,83.00
2022-12-11T16:28:20.775Z,83.49
2022-12-11T16:30:49.247Z,83.77
2022-12-11T16:33:17.841Z,83.42
2022-12-11T16:35:45.722Z,83.61
2022-12-11T16:38:15.042Z,83.51
2022-12-11T16:40:43.007Z,83.84
2022-12-11T16:43:11.004Z,84.18
2022-12-11T16:45:39.022Z,84.11
2022-12-11T16:48:07.285Z,83.76
2022-12-11T16:50:36.451Z,84.53
2022-12-11T16:53:04.326Z,84.23
2022-12-11T16:55:33.704Z,84.49
2022-12-11T16:58:01.659Z,85.17
2022-12-11T17:00:31.287Z,84.56
2022-12-11T17:02:59.632Z,84.45
2022-12-11T17:05:27.552Z,84.33
2022-12-11T17:07:55.541Z,84.45
2022-12-11T17:10:23.504Z,84.42
2022-12-11T17:12:52.752Z,84.43
2022-12-11T17:15:21.024Z,84.65
2022-12-11T17:17:48.942Z,84.66
2022-12-11T17:20:18.152Z,84.58
2022-12-11T17:22:46.393Z,84.53
2022-12-11T17:25:16.577Z,84.84
2022-12-11T17:27:44.851Z,84.56
2022-12-11T17:30:15.497Z,84.79
2022-12-11T17:32:43.401Z,85.06
2022-12-11T17:35:12.082Z,85.21
2022-12-11T17:37:40.283Z,85.10
2022-12-11T17:40:09.022Z,85.21
2022-12-11T17:42:36.927Z,85.21
2022-12-11T17:45:05.422Z,85.47
2022-12-11T17:47:34.693Z,85.15
2022-12-11T17:50:02.599Z,84.97
2022-12-11T17:52:34.505Z,85.28
2022-12-11T17:55:04.621Z,85.25
2022-12-11T17:57:32.748Z,85.58
2022-12-11T18:00:01.683Z,85.58
2022-12-11T18:02:29.658Z,85.50
2022-12-11T18:04:58.882Z,85.03
2022-12-11T18:07:26.748Z,85.73
2022-12-11T18:09:54.718Z,85.33
2022-12-11T18:12:22.701Z,85.63
2022-12-11T18:14:50.589Z,85.48
2022-12-11T18:17:18.551Z,85.70
2022-12-11T18:19:46.453Z,85.25
2022-12-11T18:22:15.713Z,84.66
2022-12-11T18:24:43.737Z,85.00
2022-12-11T18:27:14.379Z,84.75
2022-12-11T18:29:42.392Z,84.38
2022-12-11T18:32:10.368Z,85.08
2022-12-11T18:34:38.204Z,84.92
2022-12-11T18:37:06.902Z,84.30
2022-12-11T18:39:36.271Z,84.42
2022-12-11T18:42:31.766Z,85.19
2022-12-11T18:44:52.694Z,85.43
2022-12-11T18:47:20.585Z,85.03
2022-12-11T18:49:48.490Z,84.77
2022-12-11T18:52:16.330Z,85.36
2022-12-11T18:54:45.560Z,85.57
2022-12-11T18:57:13.534Z,85.86
2022-12-11T18:59:41.415Z,85.88
2022-12-11T19:02:09.640Z,86.25
2022-12-11T19:04:37.681Z,86.79
2022-12-11T19:07:05.847Z,86.60
2022-12-11T19:09:37.931Z,86.94
2022-12-11T19:12:08.146Z,87.01
2022-12-11T19:14:36.041Z,86.95
2022-12-11T19:17:04.381Z,87.04
2022-12-11T19:19:32.325Z,87.56
2022-12-11T19:22:00.286Z,87.27
2022-12-11T19:24:28.882Z,87.76
2022-12-11T19:26:57.600Z,87.03
2022-12-11T19:29:29.714Z,87.41
2022-12-11T19:31:57.697Z,87.33
2022-12-11T19:34:26.105Z,86.95
2022-12-11T19:36:54.621Z,87.52
2022-12-11T19:39:22.541Z,87.17
2022-12-11T19:41:50.801Z,86.70
2022-12-11T19:44:18.790Z,87.13
2022-12-11T19:46:48.167Z,86.76
2022-12-11T19:49:16.221Z,87.16
2022-12-11T19:51:44.920Z,86.43
2022-12-11T19:54:16.164Z,86.39
2022-12-11T19:56:45.073Z,86.82
2022-12-11T19:59:15.678Z,86.27
2022-12-11T20:01:44.610Z,86.46
2022-12-11T20:04:16.410Z,86.39
2022-12-11T20:06:46.081Z,85.16
2022-12-11T20:09:14.609Z,85.23
2022-12-11T20:11:44.320Z,85.44
2022-12-11T20:14:19.922Z,85.47
2022-12-11T20:17:10.207Z,84.98
2022-12-11T20:19:37.512Z,85.80
2022-12-11T20:22:05.902Z,85.35
2022-12-11T20:24:34.174Z,85.61
2022-12-11T20:27:02.151Z,85.54
2022-12-11T20:29:30.053Z,85.80
2022-12-11T20:31:59.605Z,85.25
2022-12-11T20:34:27.930Z,85.57
2022-12-11T20:36:57.518Z,84.86
2022-12-11T20:39:25.497Z,84.32
2022-12-11T20:41:53.437Z,85.01
2022-12-11T20:44:21.459Z,84.13
2022-12-11T20:46:50.653Z,84.08
2022-12-11T20:49:18.526Z,84.05
2022-12-11T20:51:46.438Z,84.31
2022-12-11T20:54:15.750Z,84.60
2022-12-11T20:56:44.545Z,84.88
2022-12-11T20:59:13.358Z,84.35
2022-12-11T21:01:41.608Z,84.52
2022-12-11T21:04:09.700Z,84.66
2022-12-11T21:06:40.570Z,84.83
2022-12-11T21:09:12.114Z,84.62
2022-12-11T21:11:41.377Z,84.68
2022-12-11T21:14:09.370Z,84.70
2022-12-11T21:16:38.863Z,84.67
2022-12-11T21:19:10.195Z,85.16
2022-12-11T21:21:40.594Z,85.12
2022-12-11T21:24:13.893Z,84.92
2022-12-11T21:26:43.141Z,84.54
2022-12-11T21:29:11.048Z,84.74
2022-12-11T21:31:39.092Z,84.97
2022-12-11T21:34:08.142Z,85.43
2022-12-11T21:36:36.127Z,85.25
2022-12-11T21:39:04.455Z,85.01
2022-12-11T21:41:32.617Z,85.17
2022-12-11T21:46:49.909Z,85.08
2022-12-11T21:49:18.089Z,84.75
2022-12-11T21:51:47.695Z,84.39
2022-12-11T21:54:20.773Z,84.40
2022-12-11T21:56:48.791Z,84.94
2022-12-11T21:59:18.103Z,84.77
2022-12-11T22:01:47.027Z,84.65
2022-12-11T22:04:16.455Z,84.23
2022-12-11T22:06:46.894Z,84.51
2022-12-11T22:09:16.046Z,84.95
2022-12-11T22:11:45.209Z,84.04
2022-12-11T22:14:13.815Z,84.79
2022-12-11T22:16:43.468Z,84.31
2022-12-11T22:19:11.451Z,84.75
2022-12-11T22:21:39.566Z,84.79
2022-12-11T22:24:08.003Z,84.45
2022-12-11T22:26:35.924Z,84.45
2022-12-11T22:29:04.210Z,84.27
2022-12-11T22:31:32.471Z,84.03
2022-12-11T22:34:02.635Z,84.22
2022-12-11T22:36:30.611Z,84.17
2022-12-11T22:38:58.620Z,83.24
2022-12-11T22:41:29.743Z,83.84
2022-12-11T22:43:58.592Z,83.93
2022-12-11T22:46:30.133Z,83.76
2022-12-11T22:48:59.546Z,83.94
2022-12-11T22:51:29.078Z,84.38
2022-12-11T22:53:58.491Z,84.58
2022-12-11T22:56:27.002Z,83.91
2022-12-11T22:58:54.890Z,83.32
2022-12-11T23:01:25.808Z,82.77
2022-12-11T23:03:53.819Z,83.23
2022-12-11T23:06:23.613Z,82.20
2022-12-11T23:08:55.078Z,81.48
2022-12-11T23:11:25.960Z,80.34
2022-12-11T23:13:54.069Z,80.80
2022-12-11T23:16:22.851Z,81.01
2022-12-11T23:18:51.657Z,80.41
2022-12-11T23:21:20.168Z,80.99
2022-12-11T23:23:48.490Z,82.04
2022-12-11T23:26:19.489Z,82.30
2022-12-11T23:28:48.495Z,83.37
2022-12-11T23:31:17.088Z,83.18
2022-12-11T23:33:45.046Z,83.59
2022-12-11T23:36:13.358Z,83.77
2022-12-11T23:38:42.127Z,83.58
2022-12-11T23:41:12.775Z,83.28
2022-12-11T23:43:43.135Z,83.27
2022-12-11T23:46:14.621Z,83.33
2022-12-11T23:48:43.163Z,82.87
2022-12-11T23:51:14.360Z,82.90
2022-12-11T23:53:42.575Z,82.38
2022-12-11T23:56:13.337Z,83.08
2022-12-11T23:58:43.144Z,83.11
